Sm Busan — 3EIZ8 — position and weather

sailwx.info

Track history (hours):
 
Tides and Currents Weather Stations Pressure Air Temp Water Temp Dewpoint Dewpoint Depression Visibility Wind Speed Wind Dir Waves Ship Positions

Sm Busan

Last reported at 2017-Sep-26 21:29 UTC. Time now 2017-Sep-26 22:01 UTC.
Position N 33°46' W 118°14'.

Length 304 m; draft 12.7 m.

Type: Ship (hazmat cat A). MMSI: 372445000.

Date/timePositionNaut miles runAvg speedWind from/ knotsBaromVisibWave heightAir tempDewpointWater temp
2017-Sep-26 21:29N 33°46' W 118°14'0 0.0
2017-Sep-26 20:59N 33°46' W 118°14'0 0.0
2017-Sep-26 20:26N 33°46' W 118°14'0 0.0
2017-Sep-26 19:59N 33°46' W 118°14'0 0.0
2017-Sep-26 19:29N 33°46' W 118°14'0 0.0
2017-Sep-26 18:59N 33°46' W 118°14'0 0.0
2017-Sep-26 18:29N 33°46' W 118°14'0 0.0
2017-Sep-26 17:59N 33°46' W 118°14'0 0.0
2017-Sep-26 17:29N 33°46' W 118°14'0 0.0
2017-Sep-26 16:59N 33°46' W 118°14'0 0.0
2017-Sep-26 16:26N 33°46' W 118°14'0 0.0
2017-Sep-26 15:59N 33°46' W 118°14'0 0.0
2017-Sep-26 15:26N 33°46' W 118°14'0 0.0
2017-Sep-26 14:59N 33°46' W 118°14'0 0.0
2017-Sep-26 14:29N 33°46' W 118°14'0 0.0
2017-Sep-26 13:59N 33°46' W 118°14'0 0.0
2017-Sep-26 13:29N 33°46' W 118°14'0 0.1
2017-Sep-26 13:00N 33°46' W 118°14'1 1.2
2017-Sep-26 12:31N 33°46' W 118°13'2 3.6
2017-Sep-26 12:00N 33°44' W 118°13'4 7.5
2017-Sep-26 11:30N 33°41' W 118°11'4 7.1
2017-Sep-26 11:00N 33°38' W 118°13'4 8.5
2017-Sep-26 10:30N 33°36' W 118°18'510.6
2017-Sep-26 10:00N 33°37' W 118°24'510.8
2017-Sep-26 09:30N 33°40' W 118°30'510.8
2017-Sep-26 09:00N 33°43' W 118°35'510.8
2017-Sep-26 08:30N 33°46' W 118°41'510.8
2017-Sep-26 08:00N 33°48' W 118°46'510.7
2017-Sep-26 07:30N 33°51' W 118°52'510.7
2017-Sep-26 07:00N 33°54' W 118°58'510.7
2017-Sep-26 06:30N 33°56' W 119°03'510.6
2017-Sep-26 06:01N 33°59' W 119°09'510.6
2017-Sep-26 05:30N 34°01' W 119°15'611.4
2017-Sep-26 05:00N 34°03' W 119°21'611.1
2017-Sep-26 04:30N 34°05' W 119°28'511.1
2017-Sep-26 04:00N 34°06' W 119°34'611.7
2017-Sep-26 03:30N 34°08' W 119°41'611.7
2017-Sep-26 03:00N 34°10' W 119°48'611.7
2017-Sep-26 02:30N 34°11' W 119°54'611.5
2017-Sep-26 02:00N 34°13' W 120°01'611.2
2017-Sep-26 01:30N 34°14' W 120°08'611.3
2017-Sep-26 01:00N 34°16' W 120°14'611.4
2017-Sep-26 00:29N 34°17' W 120°21'611.5
2017-Sep-25 23:57N 34°19' W 120°28'511.2
2017-Sep-25 23:30N 34°20' W 120°34'611.4
2017-Sep-25 23:00N 34°22' W 120°41'611.4
2017-Sep-25 22:29N 34°23' W 120°48'711.5
2017-Sep-25 21:54N 34°24' W 120°56'511.6
2017-Sep-25 21:29N 34°24' W 121°02'511.3
2017-Sep-25 21:00N 34°24' W 121°08'611.1
2017-Sep-25 20:28N 34°24' W 121°16'511.3
2017-Sep-25 20:00N 34°24' W 121°22'611.5
2017-Sep-25 19:29N 34°24' W 121°29'611.4
2017-Sep-25 18:59N 34°24' W 121°36'611.5
2017-Sep-25 18:30N 34°25' W 121°43'611.3
2017-Sep-25 18:00N 34°25' W 121°49'611.3
2017-Sep-25 17:30N 34°25' W 121°56'611.3
2017-Sep-25 17:00N 34°25' W 122°03'611.3
2017-Sep-25 16:30N 34°25' W 122°10'611.8
2017-Sep-25 16:00N 34°26' W 122°17'611.6
2017-Sep-25 15:30N 34°25' W 122°24'611.5
2017-Sep-25 15:00N 34°25' W 122°31'611.6
2017-Sep-25 14:30N 34°25' W 122°38'611.8
2017-Sep-25 14:00N 34°26' W 122°45'611.5
2017-Sep-25 13:30N 34°26' W 122°52'611.5
2017-Sep-25 13:00N 34°26' W 122°59'611.6
2017-Sep-25 12:30N 34°26' W 123°06'611.9
2017-Sep-25 12:00N 34°26' W 123°13'611.9
2017-Sep-25 11:30N 34°26' W 123°21'611.9
2017-Sep-25 11:00N 34°26' W 123°28'611.6
2017-Sep-25 10:31N 34°27' W 123°35'611.6
2017-Sep-25 10:00N 34°27' W 123°42'611.8
2017-Sep-25 09:29N 34°27' W 123°49'611.7
2017-Sep-25 09:00N 34°27' W 123°56'611.7
2017-Sep-25 08:30N 34°27' W 124°03'611.7
2017-Sep-25 08:00N 34°27' W 124°10'611.7
2017-Sep-25 07:31N 34°27' W 124°17'611.7
2017-Sep-25 07:00N 34°27' W 124°25'  
Track history (hours):
 
Tides and Currents Weather Stations Pressure Air Temp Water Temp Dewpoint Dewpoint Depression Visibility Wind Speed Wind Dir Waves Ship Positions

Sm Busan

Last reported at 2017-Sep-26 21:29 UTC. Time now 2017-Sep-26 22:01 UTC.
Position N 33°46' W 118°14'.

Length 304 m; draft 12.7 m.

Type: Ship (hazmat cat A). MMSI: 372445000.

Date/timePositionNaut miles runAvg speedWind from/ knotsBaromVisibWave heightAir tempDewpointWater temp
2017-Sep-26 21:29N 33°46' W 118°14'0 0.0
2017-Sep-26 20:59N 33°46' W 118°14'0 0.0
2017-Sep-26 20:26N 33°46' W 118°14'0 0.0
2017-Sep-26 19:59N 33°46' W 118°14'0 0.0
2017-Sep-26 19:29N 33°46' W 118°14'0 0.0
2017-Sep-26 18:59N 33°46' W 118°14'0 0.0
2017-Sep-26 18:29N 33°46' W 118°14'0 0.0
2017-Sep-26 17:59N 33°46' W 118°14'0 0.0
2017-Sep-26 17:29N 33°46' W 118°14'0 0.0
2017-Sep-26 16:59N 33°46' W 118°14'0 0.0
2017-Sep-26 16:26N 33°46' W 118°14'0 0.0
2017-Sep-26 15:59N 33°46' W 118°14'0 0.0
2017-Sep-26 15:26N 33°46' W 118°14'0 0.0
2017-Sep-26 14:59N 33°46' W 118°14'0 0.0
2017-Sep-26 14:29N 33°46' W 118°14'0 0.0
2017-Sep-26 13:59N 33°46' W 118°14'0 0.0
2017-Sep-26 13:29N 33°46' W 118°14'0 0.1
2017-Sep-26 13:00N 33°46' W 118°14'1 1.2
2017-Sep-26 12:31N 33°46' W 118°13'2 3.6
2017-Sep-26 12:00N 33°44' W 118°13'4 7.5
2017-Sep-26 11:30N 33°41' W 118°11'4 7.1
2017-Sep-26 11:00N 33°38' W 118°13'4 8.5
2017-Sep-26 10:30N 33°36' W 118°18'510.6
2017-Sep-26 10:00N 33°37' W 118°24'510.8
2017-Sep-26 09:30N 33°40' W 118°30'510.8
2017-Sep-26 09:00N 33°43' W 118°35'510.8
2017-Sep-26 08:30N 33°46' W 118°41'510.8
2017-Sep-26 08:00N 33°48' W 118°46'510.7
2017-Sep-26 07:30N 33°51' W 118°52'510.7
2017-Sep-26 07:00N 33°54' W 118°58'510.7
2017-Sep-26 06:30N 33°56' W 119°03'510.6
2017-Sep-26 06:01N 33°59' W 119°09'510.6
2017-Sep-26 05:30N 34°01' W 119°15'611.4
2017-Sep-26 05:00N 34°03' W 119°21'611.1
2017-Sep-26 04:30N 34°05' W 119°28'511.1
2017-Sep-26 04:00N 34°06' W 119°34'611.7
2017-Sep-26 03:30N 34°08' W 119°41'611.7
2017-Sep-26 03:00N 34°10' W 119°48'611.7
2017-Sep-26 02:30N 34°11' W 119°54'611.5
2017-Sep-26 02:00N 34°13' W 120°01'611.2
2017-Sep-26 01:30N 34°14' W 120°08'611.3
2017-Sep-26 01:00N 34°16' W 120°14'611.4
2017-Sep-26 00:29N 34°17' W 120°21'611.5
2017-Sep-25 23:57N 34°19' W 120°28'511.2
2017-Sep-25 23:30N 34°20' W 120°34'611.4
2017-Sep-25 23:00N 34°22' W 120°41'611.4
2017-Sep-25 22:29N 34°23' W 120°48'711.5
2017-Sep-25 21:54N 34°24' W 120°56'511.6
2017-Sep-25 21:29N 34°24' W 121°02'511.3
2017-Sep-25 21:00N 34°24' W 121°08'611.1
2017-Sep-25 20:28N 34°24' W 121°16'511.3
2017-Sep-25 20:00N 34°24' W 121°22'611.5
2017-Sep-25 19:29N 34°24' W 121°29'611.4
2017-Sep-25 18:59N 34°24' W 121°36'611.5
2017-Sep-25 18:30N 34°25' W 121°43'611.3
2017-Sep-25 18:00N 34°25' W 121°49'611.3
2017-Sep-25 17:30N 34°25' W 121°56'611.3
2017-Sep-25 17:00N 34°25' W 122°03'611.3
2017-Sep-25 16:30N 34°25' W 122°10'611.8
2017-Sep-25 16:00N 34°26' W 122°17'611.6
2017-Sep-25 15:30N 34°25' W 122°24'611.5
2017-Sep-25 15:00N 34°25' W 122°31'611.6
2017-Sep-25 14:30N 34°25' W 122°38'611.8
2017-Sep-25 14:00N 34°26' W 122°45'611.5
2017-Sep-25 13:30N 34°26' W 122°52'611.5
2017-Sep-25 13:00N 34°26' W 122°59'611.6
2017-Sep-25 12:30N 34°26' W 123°06'611.9
2017-Sep-25 12:00N 34°26' W 123°13'611.9
2017-Sep-25 11:30N 34°26' W 123°21'611.9
2017-Sep-25 11:00N 34°26' W 123°28'611.6
2017-Sep-25 10:31N 34°27' W 123°35'611.6
2017-Sep-25 10:00N 34°27' W 123°42'611.8
2017-Sep-25 09:29N 34°27' W 123°49'611.7
2017-Sep-25 09:00N 34°27' W 123°56'611.7
2017-Sep-25 08:30N 34°27' W 124°03'611.7
2017-Sep-25 08:00N 34°27' W 124°10'611.7
2017-Sep-25 07:31N 34°27' W 124°17'611.7
2017-Sep-25 07:00N 34°27' W 124°25'  

Dump ship's entire track history